Time;durP1;ratioP1;P1;durP2;ratioP2;P2;SDS_P1;SDS_P2;PMS_P1;PMS_P2;Temp;Humidity;BMP_temperature;BMP_pressure;BME280_temperature;BME280_humidity;BME280_pressure;Samples;Min_cycle;Max_cycle;Signal;HPM_P1;HPM_P2
2021/12/20 00:02:21;;;;;;;;;;;;;;;18.95;45.29;102782.78;5053222;28;20449;-70
2021/12/20 00:04:51;;;;;;;;;;;;;;;18.90;45.52;102771.78;5050127;28;19924;-70
2021/12/20 00:07:16;;;;;;;;;;;;;;;18.88;45.59;102765.78;5056339;28;19966;-69
2021/12/20 00:09:42;;;;;;;;;;;;;;;18.92;45.33;102769.00;5048979;28;19924;-70
2021/12/20 00:12:07;;;;;;;;;;;;;;;18.88;45.33;102768.44;5053107;28;19922;-70
2021/12/20 00:14:33;;;;;;;;;;;;;;;18.86;45.54;102766.88;5059827;28;19960;-70
2021/12/20 00:16:58;;;;;;;;;;;;;;;18.82;45.53;102770.72;5061661;28;20679;-70
2021/12/20 00:19:25;;;;;;;;;;;;;;;18.83;45.54;102765.31;5051752;28;19935;-70
2021/12/20 00:21:50;;;;;;;;;;;;;;;18.81;45.65;102771.69;5054451;28;19916;-69
2021/12/20 00:24:17;;;;;;;;;;;;;;;18.84;45.50;102766.97;5053931;28;20405;-70
2021/12/20 00:26:42;;;;;;;;;;;;;;;18.82;45.37;102755.72;5054881;28;19930;-70
2021/12/20 00:29:07;;;;;;;;;;;;;;;18.79;45.62;102763.91;5053806;28;19917;-70
2021/12/20 00:31:33;;;;;;;;;;;;;;;18.80;45.39;102770.84;5056863;28;19925;-70
2021/12/20 00:33:58;;;;;;;;;;;;;;;18.80;45.46;102770.00;5051905;28;19920;-69
2021/12/20 00:36:26;;;;;;;;;;;;;;;18.75;45.57;102772.19;5048241;28;20047;-70
2021/12/20 00:41:35;;;;;;;;;;;;;;;18.71;45.78;102766.34;5051575;28;20615;-70
2021/12/20 00:44:01;;;;;;;;;;;;;;;18.71;45.60;102769.81;5054283;28;20015;-70
2021/12/20 00:46:27;;;;;;;;;;;;;;;18.69;45.79;102771.75;5038752;28;19920;-70
2021/12/20 00:48:52;;;;;;;;;;;;;;;18.67;45.71;102772.81;5048137;28;20402;-70
2021/12/20 00:51:17;;;;;;;;;;;;;;;18.65;45.88;102778.22;5080833;27;20374;-70
2021/12/20 00:53:43;;;;;;;;;;;;;;;18.63;45.68;102769.59;5061899;28;19927;-70
2021/12/20 00:56:08;;;;;;;;;;;;;;;18.59;45.78;102762.00;5057423;28;19947;-70
2021/12/20 00:58:33;;;;;;;;;;;;;;;18.61;45.79;102768.84;5060132;28;19921;-69
2021/12/20 01:00:59;;;;;;;;;;;;;;;18.58;45.89;102774.38;5053554;28;19913;-70
2021/12/20 01:03:25;;;;;;;;;;;;;;;18.57;45.78;102783.25;5052116;28;19924;-70
2021/12/20 01:05:51;;;;;;;;;;;;;;;18.59;45.94;102776.03;5047963;28;20094;-70
2021/12/20 01:08:18;;;;;;;;;;;;;;;18.54;46.04;102775.59;5047412;28;19932;-69
2021/12/20 01:10:46;;;;;;;;;;;;;;;18.57;45.71;102771.84;5053732;28;19974;-70
2021/12/20 01:13:13;;;;;;;;;;;;;;;18.58;45.76;102777.00;5054403;28;19934;-70
2021/12/20 01:15:45;;;;;;;;;;;;;;;18.54;45.89;102770.31;5051812;28;19931;-70
2021/12/20 01:18:10;;;;;;;;;;;;;;;18.50;45.82;102776.81;5051167;28;20474;-70
2021/12/20 01:20:35;;;;;;;;;;;;;;;18.47;46.00;102787.56;5053416;28;19921;-70
2021/12/20 01:23:01;;;;;;;;;;;;;;;18.46;46.05;102787.72;5057521;28;20461;-69
2021/12/20 01:25:27;;;;;;;;;;;;;;;18.48;46.01;102780.50;5054266;28;19925;-70
2021/12/20 01:27:52;;;;;;;;;;;;;;;18.39;46.12;102793.47;5049131;28;19923;-70
2021/12/20 01:30:19;;;;;;;;;;;;;;;18.46;45.86;102787.72;5056909;28;20010;-70
2021/12/20 01:32:45;;;;;;;;;;;;;;;18.42;46.03;102785.31;5055371;28;19923;-70
2021/12/20 01:35:11;;;;;;;;;;;;;;;18.42;46.04;102784.47;5046674;28;19928;-70
2021/12/20 01:37:36;;;;;;;;;;;;;;;18.44;45.87;102782.56;5051430;28;19918;-70
2021/12/20 01:40:03;;;;;;;;;;;;;;;18.43;45.95;102789.63;5050207;28;19920;-70
2021/12/20 01:42:31;;;;;;;;;;;;;;;18.41;45.95;102782.81;5055132;28;19956;-70
2021/12/20 01:44:58;;;;;;;;;;;;;;;18.34;46.24;102782.47;5052509;28;19925;-70
2021/12/20 01:47:26;;;;;;;;;;;;;;;18.33;46.27;102786.06;5051430;28;20354;-70
2021/12/20 01:50:09;;;;;;;;;;;;;;;18.29;46.40;102789.88;5051905;28;19970;-70
2021/12/20 01:52:41;;;;;;;;;;;;;;;18.31;46.27;102789.75;5051198;28;19916;-70
2021/12/20 01:55:07;;;;;;;;;;;;;;;18.32;45.98;102794.09;5050704;28;19920;-70
2021/12/20 01:57:33;;;;;;;;;;;;;;;18.27;46.47;102793.63;5050590;28;19920;-70
2021/12/20 01:59:58;;;;;;;;;;;;;;;18.35;46.11;102785.94;5059403;28;19976;-70
2021/12/20 02:02:24;;;;;;;;;;;;;;;18.33;46.02;102791.34;5056172;28;19925;-70
2021/12/20 02:04:51;;;;;;;;;;;;;;;18.33;46.10;102790.50;5051852;28;19967;-70
2021/12/20 02:07:37;;;;;;;;;;;;;;;18.27;46.27;102786.53;5055374;28;19924;-69
2021/12/20 02:10:03;;;;;;;;;;;;;;;18.27;46.34;102789.19;5053245;28;19974;-70
2021/12/20 02:12:29;;;;;;;;;;;;;;;18.27;46.21;102791.81;5054052;28;19924;-69
2021/12/20 02:14:54;;;;;;;;;;;;;;;18.24;46.29;102789.44;5054139;28;19916;-70
2021/12/20 02:17:20;;;;;;;;;;;;;;;18.26;46.25;102791.94;5057020;28;19927;-70
2021/12/20 02:19:45;;;;;;;;;;;;;;;18.18;46.44;102789.09;5054502;28;19998;-70
2021/12/20 02:22:10;;;;;;;;;;;;;;;18.22;46.35;102793.97;5049957;28;19956;-70
2021/12/20 02:24:36;;;;;;;;;;;;;;;18.21;46.20;102792.31;5050245;28;19935;-69
2021/12/20 02:27:01;;;;;;;;;;;;;;;18.23;45.98;102787.75;5051264;28;19974;-69
2021/12/20 02:29:42;;;;;;;;;;;;;;;18.18;46.30;102797.00;5051425;28;20417;-69
2021/12/20 02:37:35;;;;;;;;;;;;;;;18.16;46.31;102796.28;5052448;28;20149;-70
2021/12/20 02:40:01;;;;;;;;;;;;;;;18.18;46.13;102789.09;5047774;28;20011;-70
2021/12/20 02:42:33;;;;;;;;;;;;;;;18.19;46.14;102788.13;5051407;28;19955;-70
2021/12/20 02:45:19;;;;;;;;;;;;;;;18.12;46.35;102785.94;5051715;28;19917;-70
2021/12/20 02:47:46;;;;;;;;;;;;;;;18.16;46.37;102796.28;5053557;28;20393;-69
2021/12/20 02:50:12;;;;;;;;;;;;;;;18.09;46.37;102790.63;5048357;28;19916;-70
2021/12/20 02:52:38;;;;;;;;;;;;;;;18.08;46.59;102795.06;5053058;28;19927;-70
2021/12/20 02:55:04;;;;;;;;;;;;;;;18.08;46.56;102788.97;5051247;28;20384;-70
2021/12/20 02:57:29;;;;;;;;;;;;;;;18.09;46.45;102788.84;5058544;28;20116;-70
2021/12/20 02:59:55;;;;;;;;;;;;;;;18.11;46.41;102793.97;5054888;28;19917;-70
2021/12/20 03:02:22;;;;;;;;;;;;;;;18.02;46.41;102795.56;5055163;28;20026;-70
2021/12/20 03:04:48;;;;;;;;;;;;;;;18.00;46.66;102784.31;5084019;28;19920;-70
2021/12/20 03:07:20;;;;;;;;;;;;;;;18.01;46.42;102780.69;5051707;28;20405;-70
2021/12/20 03:09:51;;;;;;;;;;;;;;;17.98;46.67;102786.22;5053066;28;19925;-70
2021/12/20 03:12:16;;;;;;;;;;;;;;;18.02;46.41;102781.53;5049861;28;20366;-70
2021/12/20 03:14:45;;;;;;;;;;;;;;;17.98;46.69;102788.00;5054116;28;20237;-69
2021/12/20 03:17:10;;;;;;;;;;;;;;;17.95;46.62;102783.78;5056177;28;19924;-70
2021/12/20 03:19:36;;;;;;;;;;;;;;;17.97;46.57;102786.34;5050295;28;19933;-70
2021/12/20 03:22:02;;;;;;;;;;;;;;;18.03;46.39;102780.56;5058649;28;19921;-70
2021/12/20 03:24:28;;;;;;;;;;;;;;;17.97;46.57;102778.44;5057461;28;19969;-69
2021/12/20 03:26:53;;;;;;;;;;;;;;;17.92;46.54;102778.78;5050049;28;19924;-70
2021/12/20 03:29:19;;;;;;;;;;;;;;;17.95;46.45;102775.06;5054208;28;19917;-71
2021/12/20 03:31:44;;;;;;;;;;;;;;;17.95;46.51;102781.16;5050405;28;20536;-70
2021/12/20 03:34:10;;;;;;;;;;;;;;;17.93;46.55;102784.88;5055208;28;19917;-70
2021/12/20 03:36:35;;;;;;;;;;;;;;;17.90;46.62;102783.31;5051510;28;20465;-70
2021/12/20 03:39:03;;;;;;;;;;;;;;;17.96;46.52;102782.03;5083325;28;19928;-70
2021/12/20 03:41:28;;;;;;;;;;;;;;;17.91;46.62;102786.81;5049389;28;21523;-70
2021/12/20 03:43:53;;;;;;;;;;;;;;;17.96;46.37;102788.13;5054695;28;19982;-70
2021/12/20 03:46:19;;;;;;;;;;;;;;;17.97;46.29;102784.53;5057155;28;20427;-70
2021/12/20 03:48:44;;;;;;;;;;;;;;;17.93;46.50;102784.88;5047372;28;19963;-69
2021/12/20 03:51:10;;;;;;;;;;;;;;;17.89;46.65;102794.84;5050524;28;19916;-70
2021/12/20 03:53:35;;;;;;;;;;;;;;;17.90;46.56;102782.50;5051372;28;19932;-70
2021/12/20 03:56:02;;;;;;;;;;;;;;;17.88;46.46;102787.88;5055880;28;20384;-70
2021/12/20 03:58:28;;;;;;;;;;;;;;;17.83;46.62;102790.03;5054671;28;19986;-69
2021/12/20 04:01:00;;;;;;;;;;;;;;;17.87;46.65;102790.63;5050055;28;20386;-70
2021/12/20 04:03:28;;;;;;;;;;;;;;;17.78;46.75;102793.03;5053820;28;19916;-70
2021/12/20 04:05:53;;;;;;;;;;;;;;;17.84;46.62;102798.78;5049190;28;20417;-70
2021/12/20 04:08:19;;;;;;;;;;;;;;;17.76;46.56;102792.28;5050115;28;19916;-70
2021/12/20 04:10:44;;;;;;;;;;;;;;;17.81;46.69;102799.88;5054178;28;19924;-70
2021/12/20 04:13:10;;;;;;;;;;;;;;;17.77;46.75;102796.63;5054382;28;19924;-70
2021/12/20 04:15:36;;;;;;;;;;;;;;;17.78;46.83;102792.22;5051268;28;19946;-69
2021/12/20 04:18:01;;;;;;;;;;;;;;;17.74;46.83;102798.66;5049732;28;19924;-70
2021/12/20 04:20:26;;;;;;;;;;;;;;;17.55;46.87;102769.38;5049621;28;19975;-70
2021/12/20 04:22:52;;;;;;;;;;;;;;;17.70;46.89;102794.56;5046741;28;20057;-70
2021/12/20 04:25:17;;;;;;;;;;;;;;;17.77;46.50;102793.13;5049597;28;19925;-70
2021/12/20 04:27:42;;;;;;;;;;;;;;;17.85;46.45;102798.66;5050454;28;20480;-70
2021/12/20 04:30:10;;;;;;;;;;;;;;;17.77;46.48;102790.50;5079979;28;19924;-70
2021/12/20 04:32:39;;;;;;;;;;;;;;;17.72;46.75;102792.66;5053582;28;19920;-70
2021/12/20 04:35:05;;;;;;;;;;;;;;;17.83;46.17;102799.75;5048630;28;19917;-70
2021/12/20 04:37:31;;;;;;;;;;;;;;;17.91;46.29;102814.00;5050084;28;19924;-70
2021/12/20 04:39:57;;;;;;;;;;;;;;;17.97;46.14;102813.53;5051492;28;20104;-70
2021/12/20 04:42:22;;;;;;;;;;;;;;;18.05;45.93;102808.50;5050271;28;19919;-70
2021/12/20 04:44:48;;;;;;;;;;;;;;;18.11;45.64;102805.38;5052575;28;19939;-70
2021/12/20 04:47:13;;;;;;;;;;;;;;;18.24;45.40;102807.88;5055185;28;19930;-70
2021/12/20 04:49:38;;;;;;;;;;;;;;;18.33;45.47;102811.59;5054749;28;19921;-70
2021/12/20 04:52:04;;;;;;;;;;;;;;;18.41;45.29;102807.38;5053653;28;19980;-70
2021/12/20 04:54:29;;;;;;;;;;;;;;;18.55;45.23;102802.81;5055904;28;19921;-70
2021/12/20 04:56:54;;;;;;;;;;;;;;;18.67;45.10;102805.34;5053515;28;19970;-70
2021/12/20 04:59:20;;;;;;;;;;;;;;;18.80;44.93;102817.53;5052983;28;19971;-70
2021/12/20 05:01:45;;;;;;;;;;;;;;;18.91;44.90;102818.31;5056934;28;20175;-69
2021/12/20 05:04:11;;;;;;;;;;;;;;;19.01;44.70;102811.31;5055001;28;19959;-70
2021/12/20 05:06:36;;;;;;;;;;;;;;;19.12;44.50;102806.97;5049316;28;19931;-70
2021/12/20 05:09:04;;;;;;;;;;;;;;;19.19;44.59;102816.88;5056918;28;19920;-70
2021/12/20 05:11:30;;;;;;;;;;;;;;;19.21;44.46;102817.63;5054241;28;19924;-70
2021/12/20 05:13:56;;;;;;;;;;;;;;;19.30;44.39;102821.28;5058217;28;20362;-70
2021/12/20 05:16:21;;;;;;;;;;;;;;;19.36;44.36;102820.75;5048271;28;19921;-69
2021/12/20 05:18:47;;;;;;;;;;;;;;;19.42;44.23;102816.78;5056795;28;19916;-70
2021/12/20 05:21:12;;;;;;;;;;;;;;;19.46;44.16;102816.38;5053284;28;19916;-70
2021/12/20 05:23:38;;;;;;;;;;;;;;;19.50;44.20;102816.97;5053459;28;19963;-70
2021/12/20 05:26:03;;;;;;;;;;;;;;;19.53;44.11;102817.53;5051516;28;19925;-70
2021/12/20 05:28:28;;;;;;;;;;;;;;;19.58;44.12;102822.50;5055880;28;19924;-70
2021/12/20 05:30:54;;;;;;;;;;;;;;;19.61;44.12;102820.41;5052524;28;19963;-69
2021/12/20 05:33:20;;;;;;;;;;;;;;;19.66;44.03;102819.19;5056861;28;19920;-71
2021/12/20 05:35:46;;;;;;;;;;;;;;;19.69;43.93;102821.56;5062364;28;20004;-71
2021/12/20 05:38:11;;;;;;;;;;;;;;;19.68;43.85;102815.44;5049703;28;19953;-70
2021/12/20 05:40:37;;;;;;;;;;;;;;;19.71;43.88;102815.16;5052693;28;19946;-70
2021/12/20 05:43:03;;;;;;;;;;;;;;;19.69;43.90;102819.75;5047805;28;20279;-70
2021/12/20 05:45:28;;;;;;;;;;;;;;;19.70;43.86;102826.72;5050140;28;19977;-70
2021/12/20 05:47:53;;;;;;;;;;;;;;;19.70;44.04;102825.88;5048282;28;19925;-70
2021/12/20 05:50:21;;;;;;;;;;;;;;;19.70;44.00;102829.34;5049676;28;19921;-70
2021/12/20 05:52:46;;;;;;;;;;;;;;;19.74;43.84;102832.56;5053398;28;20574;-70
2021/12/20 05:55:13;;;;;;;;;;;;;;;19.72;43.75;102832.69;5048839;28;19939;-70
2021/12/20 05:57:38;;;;;;;;;;;;;;;19.73;43.82;102834.38;5054766;28;19920;-70
2021/12/20 06:00:05;;;;;;;;;;;;;;;19.73;43.84;102836.19;5056609;28;20638;-70
2021/12/20 06:02:39;;;;;;;;;;;;;;;19.73;43.92;102834.38;5050168;28;19917;-70
2021/12/20 06:05:04;;;;;;;;;;;;;;;19.76;43.85;102835.94;5052192;28;20015;-70
2021/12/20 06:07:30;;;;;;;;;;;;;;;19.77;43.72;102843.75;5048190;28;20397;-70
2021/12/20 06:09:55;;;;;;;;;;;;;;;19.78;43.72;102840.13;5055437;28;19920;-70
2021/12/20 06:12:20;;;;;;;;;;;;;;;19.81;43.67;102834.56;5050029;28;19921;-70
2021/12/20 06:14:46;;;;;;;;;;;;;;;19.82;43.60;102838.88;5053815;28;19920;-70
2021/12/20 06:17:11;;;;;;;;;;;;;;;19.86;43.64;102840.28;5052249;28;19924;-70
2021/12/20 06:19:37;;;;;;;;;;;;;;;19.87;43.56;102843.78;5052877;28;20346;-70
2021/12/20 06:22:04;;;;;;;;;;;;;;;19.92;43.56;102845.06;5051219;28;20631;-70
2021/12/20 06:24:29;;;;;;;;;;;;;;;19.92;43.54;102845.06;5054089;28;19924;-69
2021/12/20 06:26:55;;;;;;;;;;;;;;;19.99;43.43;102852.47;5052859;28;19989;-70
2021/12/20 06:29:20;;;;;;;;;;;;;;;20.00;43.41;102848.84;5051885;28;20271;-70
2021/12/20 06:31:45;;;;;;;;;;;;;;;20.02;43.31;102850.41;5047790;28;19916;-70
2021/12/20 06:34:11;;;;;;;;;;;;;;;20.03;43.36;102856.53;5050490;28;19940;-71
2021/12/20 06:36:36;;;;;;;;;;;;;;;20.01;43.47;102861.13;5049151;28;19947;-70
2021/12/20 06:39:03;;;;;;;;;;;;;;;20.01;43.35;102855.81;5051284;28;20767;-70
2021/12/20 06:41:28;;;;;;;;;;;;;;;19.99;43.46;102849.84;5046139;28;19947;-70
2021/12/20 06:43:54;;;;;;;;;;;;;;;19.95;43.51;102851.91;5082268;27;19924;-70
2021/12/20 06:46:20;;;;;;;;;;;;;;;19.95;43.49;102862.50;5052946;28;19920;-70
2021/12/20 06:48:45;;;;;;;;;;;;;;;19.95;43.42;102864.28;5052578;28;19922;-70
2021/12/20 06:51:11;;;;;;;;;;;;;;;19.97;43.53;102863.19;5049421;28;19923;-70
2021/12/20 06:53:36;;;;;;;;;;;;;;;20.02;43.32;102855.69;5060568;28;19938;-70
2021/12/20 06:56:02;;;;;;;;;;;;;;;20.03;43.23;102857.38;5052191;28;20409;-70
2021/12/20 06:58:27;;;;;;;;;;;;;;;20.02;43.31;102860.13;5046559;28;19920;-70
2021/12/20 07:00:53;;;;;;;;;;;;;;;20.02;43.30;102860.97;5051752;28;19923;-70
2021/12/20 07:03:19;;;;;;;;;;;;;;;20.03;43.28;102862.66;5051448;28;19932;-70
2021/12/20 07:05:45;;;;;;;;;;;;;;;20.04;43.29;102874.91;5052883;28;19970;-70
2021/12/20 07:08:10;;;;;;;;;;;;;;;20.07;43.15;102879.09;5045857;28;19956;-70
2021/12/20 07:10:35;;;;;;;;;;;;;;;20.11;43.09;102877.88;5043114;28;19916;-71
2021/12/20 07:13:01;;;;;;;;;;;;;;;20.12;43.08;102872.44;5053913;28;20336;-70
2021/12/20 07:15:27;;;;;;;;;;;;;;;20.17;43.03;102878.19;5048619;28;19932;-70
2021/12/20 07:17:52;;;;;;;;;;;;;;;20.18;43.05;102873.72;5049700;28;19929;-70
2021/12/20 07:20:18;;;;;;;;;;;;;;;20.20;43.04;102882.34;5051924;28;20294;-69
2021/12/20 07:22:43;;;;;;;;;;;;;;;20.19;43.02;102886.81;5056261;28;19935;-70
2021/12/20 07:25:09;;;;;;;;;;;;;;;20.19;43.06;102893.91;5053026;28;20370;-70
2021/12/20 07:27:35;;;;;;;;;;;;;;;20.15;43.16;102890.69;5045531;28;20412;-70
2021/12/20 07:30:01;;;;;;;;;;;;;;;20.14;43.13;102882.91;5050266;28;19928;-69
2021/12/20 07:32:26;;;;;;;;;;;;;;;20.13;43.27;102883.88;5050429;28;19950;-70
2021/12/20 07:34:52;;;;;;;;;;;;;;;20.12;43.08;102880.38;5052871;28;19924;-70
2021/12/20 07:37:17;;;;;;;;;;;;;;;20.13;43.07;102881.22;5048033;28;20278;-70
2021/12/20 07:39:43;;;;;;;;;;;;;;;20.15;43.07;102892.50;5047666;28;20007;-70
2021/12/20 07:42:09;;;;;;;;;;;;;;;20.13;42.94;102889.16;5046508;28;20022;-70
2021/12/20 07:44:35;;;;;;;;;;;;;;;20.15;42.98;102893.34;5046400;28;19924;-70
2021/12/20 07:47:00;;;;;;;;;;;;;;;20.13;42.98;102890.00;5052000;28;19923;-70
2021/12/20 07:49:25;;;;;;;;;;;;;;;20.18;42.85;102895.72;5048140;28;20457;-70
2021/12/20 07:51:53;;;;;;;;;;;;;;;20.20;42.89;102900.88;5047252;28;19916;-70
2021/12/20 07:54:19;;;;;;;;;;;;;;;20.19;42.89;102900.03;5048651;28;20643;-70
2021/12/20 07:56:44;;;;;;;;;;;;;;;20.20;42.88;102903.53;5048465;28;19975;-70
2021/12/20 07:59:09;;;;;;;;;;;;;;;20.19;42.95;102896.56;5048045;28;19921;-70
2021/12/20 08:01:35;;;;;;;;;;;;;;;20.18;42.96;102900.19;5049799;28;19974;-70
2021/12/20 08:04:01;;;;;;;;;;;;;;;20.20;42.88;102901.72;5050004;28;19916;-70
2021/12/20 08:06:27;;;;;;;;;;;;;;;20.19;42.91;102905.34;5048887;28;19937;-70
2021/12/20 08:08:52;;;;;;;;;;;;;;;20.11;42.85;102897.22;5051125;28;20298;-70
2021/12/20 08:11:18;;;;;;;;;;;;;;;20.19;42.95;102907.13;5045282;28;20000;-70
2021/12/20 08:13:46;;;;;;;;;;;;;;;20.16;42.89;102916.19;5044942;28;20037;-70
2021/12/20 08:16:12;;;;;;;;;;;;;;;20.16;42.91;102910.06;5048059;28;19939;-70
2021/12/20 08:18:38;;;;;;;;;;;;;;;20.15;42.83;102913.66;5048420;28;19921;-70
2021/12/20 08:21:04;;;;;;;;;;;;;;;20.14;43.01;102915.47;5046246;28;19920;-69
2021/12/20 08:23:29;;;;;;;;;;;;;;;20.15;42.85;102918.97;5052196;28;19959;-70
2021/12/20 08:25:54;;;;;;;;;;;;;;;20.18;42.79;102918.69;5047017;28;19924;-69
2021/12/20 08:28:20;;;;;;;;;;;;;;;20.20;42.74;102922.88;5058100;28;19999;-70
2021/12/20 08:30:45;;;;;;;;;;;;;;;20.23;42.78;102922.59;5082975;28;19923;-70
2021/12/20 08:33:12;;;;;;;;;;;;;;;20.25;42.76;102922.47;5050813;28;19924;-70
2021/12/20 08:35:37;;;;;;;;;;;;;;;20.23;42.69;102925.25;5049097;28;19920;-70
2021/12/20 08:38:03;;;;;;;;;;;;;;;20.25;42.71;102929.56;5056487;28;19927;-70
2021/12/20 08:40:28;;;;;;;;;;;;;;;20.27;42.64;102932.91;5051082;28;19928;-70
2021/12/20 08:42:54;;;;;;;;;;;;;;;20.25;42.72;102929.56;5050440;28;19924;-69
2021/12/20 08:45:20;;;;;;;;;;;;;;;20.25;42.63;102935.69;5063967;28;20391;-69
2021/12/20 08:47:45;;;;;;;;;;;;;;;20.26;42.54;102936.53;5060087;28;20019;-70
2021/12/20 08:50:13;;;;;;;;;;;;;;;20.23;42.38;102940.28;5054078;28;20377;-70
2021/12/20 08:52:38;;;;;;;;;;;;;;;20.23;42.19;102945.59;5056320;28;19916;-70
2021/12/20 08:55:05;;;;;;;;;;;;;;;20.20;42.15;102929.97;5066677;28;19924;-70
2021/12/20 08:57:30;;;;;;;;;;;;;;;20.19;42.07;102938.88;5061473;28;20194;-70
2021/12/20 08:59:56;;;;;;;;;;;;;;;20.18;42.04;102938.03;5053539;28;20742;-70
2021/12/20 09:02:21;;;;;;;;;;;;;;;20.19;41.84;102942.38;5062880;28;20012;-70
2021/12/20 09:04:46;;;;;;;;;;;;;;;20.23;41.65;102942.94;5051988;28;20034;-70
2021/12/20 09:07:16;;;;;;;;;;;;;;;20.15;41.70;102940.97;5059843;28;19984;-70
2021/12/20 09:09:47;;;;;;;;;;;;;;;20.25;41.62;102953.38;5065270;28;20282;-70
2021/12/20 09:12:13;;;;;;;;;;;;;;;20.26;41.48;102953.25;5057826;28;19932;-70
2021/12/20 09:14:39;;;;;;;;;;;;;;;20.28;41.47;102953.94;5055335;28;19920;-70
2021/12/20 09:17:04;;;;;;;;;;;;;;;20.29;41.23;102947.72;5074002;28;20383;-70
2021/12/20 09:19:30;;;;;;;;;;;;;;;20.30;41.35;102954.69;5077603;28;19961;-70
2021/12/20 09:21:55;;;;;;;;;;;;;;;20.35;41.14;102955.13;5055391;28;19948;-70
2021/12/20 09:24:21;;;;;;;;;;;;;;;20.39;40.95;102953.88;5049671;28;20465;-70
2021/12/20 09:26:46;;;;;;;;;;;;;;;20.38;41.01;102960.16;5051277;28;20031;-70
2021/12/20 09:29:12;;;;;;;;;;;;;;;20.35;41.08;102960.41;5065237;28;20011;-70
2021/12/20 09:31:37;;;;;;;;;;;;;;;20.31;40.93;102960.81;5054898;28;19920;-70
2021/12/20 09:34:03;;;;;;;;;;;;;;;20.28;40.86;102961.88;5071993;28;19927;-70
2021/12/20 09:36:29;;;;;;;;;;;;;;;20.24;40.98;102963.13;5050508;28;20014;-70
2021/12/20 09:38:58;;;;;;;;;;;;;;;20.19;40.89;102960.88;5064488;28;19920;-70
2021/12/20 09:44:05;;;;;;;;;;;;;;;20.15;40.83;102969.22;5055475;28;20336;-70
2021/12/20 09:46:31;;;;;;;;;;;;;;;20.12;40.78;102967.69;5067795;28;20313;-71
2021/12/20 09:48:57;;;;;;;;;;;;;;;20.10;40.72;102971.38;5055591;28;19917;-70
2021/12/20 09:51:23;;;;;;;;;;;;;;;20.08;40.75;102979.47;5052675;28;19920;-70
2021/12/20 09:53:49;;;;;;;;;;;;;;;20.05;40.77;102974.44;5058840;28;20298;-70
2021/12/20 09:56:16;;;;;;;;;;;;;;;20.04;40.60;102977.22;5065936;28;19927;-70
2021/12/20 09:58:42;;;;;;;;;;;;;;;20.04;40.51;102979.84;5065908;28;19921;-70
2021/12/20 10:01:09;;;;;;;;;;;;;;;20.01;40.57;102978.31;5056458;28;20378;-70
2021/12/20 10:03:35;;;;;;;;;;;;;;;20.00;40.56;102973.16;5055489;28;19924;-70
2021/12/20 10:06:00;;;;;;;;;;;;;;;20.00;40.64;102978.44;5056564;28;19972;-70
2021/12/20 10:08:32;;;;;;;;;;;;;;;20.00;40.66;102975.81;5053418;28;20038;-70
2021/12/20 10:10:59;;;;;;;;;;;;;;;20.07;41.07;102974.31;5057799;28;20082;-70
2021/12/20 10:13:26;;;;;;;;;;;;;;;20.23;41.48;102977.31;5035126;28;19927;-66
2021/12/20 10:15:52;;;;;;;;;;;;;;;20.36;41.43;102979.78;5054570;28;19920;-65
2021/12/20 10:18:17;;;;;;;;;;;;;;;20.45;41.57;102974.53;5053581;28;19920;-65
2021/12/20 10:20:48;;;;;;;;;;;;;;;20.57;41.68;102979.75;5049774;28;19964;-65
2021/12/20 10:23:18;;;;;;;;;;;;;;;20.69;41.69;102984.00;5051543;28;19950;-65
2021/12/20 10:25:44;;;;;;;;;;;;;;;20.63;40.81;102985.34;5053914;28;20321;-68
2021/12/20 10:28:11;;;;;;;;;;;;;;;20.55;40.47;102987.84;5028668;28;19921;-68
2021/12/20 10:30:39;;;;;;;;;;;;;;;20.49;40.12;102977.78;5045320;28;19916;-67
2021/12/20 10:33:07;;;;;;;;;;;;;;;20.42;39.86;102985.41;5068015;28;19927;-68
2021/12/20 10:35:38;;;;;;;;;;;;;;;20.40;40.09;102984.66;5025619;28;20432;-68
2021/12/20 10:38:05;;;;;;;;;;;;;;;20.35;40.07;102989.53;5054978;28;19923;-72
2021/12/20 10:40:31;;;;;;;;;;;;;;;20.40;40.88;102989.13;5023671;28;20278;-69
2021/12/20 10:42:58;;;;;;;;;;;;;;;20.49;40.97;102983.91;5051438;28;20361;-66
2021/12/20 10:45:25;;;;;;;;;;;;;;;20.62;41.25;102988.97;5022830;28;20432;-63
2021/12/20 10:47:51;;;;;;;;;;;;;;;20.75;40.92;102997.53;5067045;28;20361;-65
2021/12/20 10:50:19;;;;;;;;;;;;;;;20.80;40.92;102992.66;5036408;28;19959;-67
2021/12/20 10:52:45;;;;;;;;;;;;;;;20.77;41.04;102986.81;5059978;28;19920;-70
2021/12/20 10:55:11;;;;;;;;;;;;;;;20.80;41.37;102983.88;5028581;28;20483;-65
2021/12/20 10:57:37;;;;;;;;;;;;;;;20.88;41.16;102985.88;5058734;28;19916;-69
2021/12/20 11:00:22;;;;;;;;;;;;;;;20.90;40.67;102986.59;5028997;28;20734;-67
2021/12/20 11:05:44;;;;;;;;;;;;;;;20.83;41.26;102988.09;5055219;28;19925;-69
2021/12/20 11:11:10;;;;;;;;;;;;;;;20.77;41.11;102997.41;5059908;28;19920;-68
2021/12/20 11:13:39;;;;;;;;;;;;;;;20.79;40.90;102984.88;5027851;28;19989;-68
2021/12/20 11:16:24;;;;;;;;;;;;;;;20.86;41.44;102990.47;5053349;28;20412;-67
2021/12/20 11:19:08;;;;;;;;;;;;;;;20.95;41.63;102993.13;5017356;28;19916;-69
2021/12/20 11:21:34;;;;;;;;;;;;;;;20.99;41.29;102985.75;5050295;28;19952;-66
2021/12/20 11:24:00;;;;;;;;;;;;;;;21.01;41.30;102995.28;5036889;28;20023;-64
2021/12/20 11:26:27;;;;;;;;;;;;;;;21.03;41.50;102990.66;5055171;28;20344;-65
2021/12/20 11:28:54;;;;;;;;;;;;;;;21.09;41.51;102987.47;5028690;28;19969;-65
2021/12/20 11:31:19;;;;;;;;;;;;;;;21.15;41.54;102980.78;5060014;28;20650;-66
2021/12/20 11:33:45;;;;;;;;;;;;;;;21.20;41.76;102978.59;5020105;28;19921;-68
2021/12/20 11:36:10;;;;;;;;;;;;;;;21.27;41.42;102977.06;5058447;28;19927;-66
2021/12/20 11:38:36;;;;;;;;;;;;;;;21.19;41.45;102976.91;5039216;28;19952;-69
2021/12/20 11:41:01;;;;;;;;;;;;;;;21.15;41.53;102977.28;5045147;28;20042;-69
2021/12/20 11:43:27;;;;;;;;;;;;;;;21.09;41.71;102976.88;5062949;28;19956;-69
2021/12/20 11:45:53;;;;;;;;;;;;;;;21.21;41.62;102977.59;5029240;28;19935;-66
2021/12/20 11:48:20;;;;;;;;;;;;;;;21.26;41.86;102974.56;5068437;28;19920;-66
2021/12/20 11:50:45;;;;;;;;;;;;;;;21.31;41.58;102983.78;5010890;28;20674;-66
2021/12/20 11:53:15;;;;;;;;;;;;;;;21.23;41.44;102975.66;5065509;28;19924;-68
2021/12/20 11:55:44;;;;;;;;;;;;;;;21.17;41.83;102970.03;5035099;28;19928;-68
2021/12/20 11:58:21;;;;;;;;;;;;;;;21.11;41.81;102968.78;5060620;28;19915;-69
2021/12/20 12:01:00;;;;;;;;;;;;;;;21.10;41.76;102970.59;5028341;28;19966;-69
2021/12/20 12:03:32;;;;;;;;;;;;;;;21.08;41.52;102974.38;5057445;28;20014;-68
2021/12/20 12:06:02;;;;;;;;;;;;;;;21.09;41.59;102968.09;5041654;28;20902;-68
2021/12/20 12:08:27;;;;;;;;;;;;;;;21.03;41.60;102966.00;5042333;28;19917;-68
2021/12/20 12:10:54;;;;;;;;;;;;;;;21.04;41.40;102962.38;5056516;28;19973;-68
2021/12/20 12:13:22;;;;;;;;;;;;;;;21.03;41.45;102961.53;5030713;28;19920;-68
2021/12/20 12:16:03;;;;;;;;;;;;;;;21.01;41.22;102971.44;5054369;28;20003;-68
2021/12/20 12:18:46;;;;;;;;;;;;;;;20.99;41.16;102973.34;5028703;28;19920;-68
2021/12/20 12:21:30;;;;;;;;;;;;;;;20.99;41.31;102976.00;5057344;28;19916;-68
2021/12/20 12:23:55;;;;;;;;;;;;;;;20.97;41.14;102972.66;5001459;28;19943;-68
2021/12/20 12:26:32;;;;;;;;;;;;;;;20.93;41.29;102970.41;5059359;28;19920;-68
2021/12/20 12:28:57;;;;;;;;;;;;;;;20.87;41.23;102971.81;5022811;28;19927;-68
2021/12/20 12:31:23;;;;;;;;;;;;;;;20.80;41.40;102978.59;5062568;28;19908;-68
2021/12/20 12:34:04;;;;;;;;;;;;;;;20.80;41.44;102981.25;5029114;28;20755;-68
2021/12/20 12:36:32;;;;;;;;;;;;;;;20.77;41.14;102977.06;5050480;28;19912;-68
2021/12/20 12:39:01;;;;;;;;;;;;;;;20.77;41.31;102981.50;5028918;28;19924;-68
2021/12/20 12:41:32;;;;;;;;;;;;;;;20.79;41.42;102976.91;5042415;28;19940;-68
2021/12/20 12:44:00;;;;;;;;;;;;;;;20.77;41.44;102979.69;5058634;28;19927;-68
2021/12/20 12:46:44;;;;;;;;;;;;;;;20.83;41.34;102985.47;5028803;28;19971;-68
2021/12/20 12:49:21;;;;;;;;;;;;;;;20.79;41.52;102985.69;5069543;28;20374;-69
2021/12/20 12:51:47;;;;;;;;;;;;;;;20.77;41.55;102977.06;5036491;28;19920;-69